sensor_id;sensor_type;location;lat;lon;timestamp;P1;durP1;ratioP1;P2;durP2;ratioP2
19525;SDS011;9907;42.676;26.348;2022-12-19T00:00:44;8.13;;;6.23;;
19525;SDS011;9907;42.676;26.348;2022-12-19T00:03:11;6.93;;;6.17;;
19525;SDS011;9907;42.676;26.348;2022-12-19T00:05:37;8.00;;;6.70;;
19525;SDS011;9907;42.676;26.348;2022-12-19T00:08:03;8.10;;;6.10;;
19525;SDS011;9907;42.676;26.348;2022-12-19T00:10:29;8.87;;;6.90;;
19525;SDS011;9907;42.676;26.348;2022-12-19T00:12:55;9.30;;;6.90;;
19525;SDS011;9907;42.676;26.348;2022-12-19T00:15:20;8.23;;;6.43;;
19525;SDS011;9907;42.676;26.348;2022-12-19T00:17:46;7.20;;;6.30;;
19525;SDS011;9907;42.676;26.348;2022-12-19T00:20:11;8.77;;;6.27;;
19525;SDS011;9907;42.676;26.348;2022-12-19T00:22:37;8.10;;;6.67;;
19525;SDS011;9907;42.676;26.348;2022-12-19T00:25:02;8.50;;;7.10;;
19525;SDS011;9907;42.676;26.348;2022-12-19T00:27:28;8.20;;;6.07;;
19525;SDS011;9907;42.676;26.348;2022-12-19T00:29:58;10.00;;;6.63;;
19525;SDS011;9907;42.676;26.348;2022-12-19T00:32:24;8.20;;;6.00;;
19525;SDS011;9907;42.676;26.348;2022-12-19T00:34:49;7.20;;;5.47;;
19525;SDS011;9907;42.676;26.348;2022-12-19T00:37:15;6.30;;;5.30;;
19525;SDS011;9907;42.676;26.348;2022-12-19T00:39:40;7.50;;;5.90;;
19525;SDS011;9907;42.676;26.348;2022-12-19T00:42:06;7.17;;;5.97;;
19525;SDS011;9907;42.676;26.348;2022-12-19T00:44:31;6.83;;;5.50;;
19525;SDS011;9907;42.676;26.348;2022-12-19T00:46:57;6.53;;;5.70;;
19525;SDS011;9907;42.676;26.348;2022-12-19T00:49:22;8.17;;;6.30;;
19525;SDS011;9907;42.676;26.348;2022-12-19T00:51:47;7.07;;;5.53;;
19525;SDS011;9907;42.676;26.348;2022-12-19T00:54:13;8.13;;;5.77;;
19525;SDS011;9907;42.676;26.348;2022-12-19T00:56:39;8.33;;;5.30;;
19525;SDS011;9907;42.676;26.348;2022-12-19T00:59:04;5.60;;;5.10;;
19525;SDS011;9907;42.676;26.348;2022-12-19T01:01:34;7.03;;;5.37;;
19525;SDS011;9907;42.676;26.348;2022-12-19T01:04:02;5.60;;;4.77;;
19525;SDS011;9907;42.676;26.348;2022-12-19T01:06:29;6.90;;;5.23;;
19525;SDS011;9907;42.676;26.348;2022-12-19T01:08:55;6.10;;;5.13;;
19525;SDS011;9907;42.676;26.348;2022-12-19T01:11:21;6.03;;;4.90;;
19525;SDS011;9907;42.676;26.348;2022-12-19T01:14:06;5.77;;;4.57;;
19525;SDS011;9907;42.676;26.348;2022-12-19T01:16:32;7.33;;;4.97;;
19525;SDS011;9907;42.676;26.348;2022-12-19T01:18:57;6.53;;;5.07;;
19525;SDS011;9907;42.676;26.348;2022-12-19T01:21:23;6.33;;;4.67;;
19525;SDS011;9907;42.676;26.348;2022-12-19T01:23:48;6.30;;;5.00;;
19525;SDS011;9907;42.676;26.348;2022-12-19T01:26:14;5.23;;;4.73;;
19525;SDS011;9907;42.676;26.348;2022-12-19T01:28:39;5.73;;;4.60;;
19525;SDS011;9907;42.676;26.348;2022-12-19T01:31:05;6.27;;;4.80;;
19525;SDS011;9907;42.676;26.348;2022-12-19T01:33:31;6.30;;;4.87;;
19525;SDS011;9907;42.676;26.348;2022-12-19T01:35:56;6.13;;;5.10;;
19525;SDS011;9907;42.676;26.348;2022-12-19T01:38:22;6.17;;;5.33;;
19525;SDS011;9907;42.676;26.348;2022-12-19T01:40:48;6.43;;;5.00;;
19525;SDS011;9907;42.676;26.348;2022-12-19T01:43:15;5.10;;;4.60;;
19525;SDS011;9907;42.676;26.348;2022-12-19T01:45:41;5.67;;;4.60;;
19525;SDS011;9907;42.676;26.348;2022-12-19T01:48:13;6.03;;;4.67;;
19525;SDS011;9907;42.676;26.348;2022-12-19T01:50:55;6.37;;;4.90;;
19525;SDS011;9907;42.676;26.348;2022-12-19T01:53:25;5.33;;;4.43;;
19525;SDS011;9907;42.676;26.348;2022-12-19T01:55:53;5.93;;;4.60;;
19525;SDS011;9907;42.676;26.348;2022-12-19T01:58:20;5.53;;;4.50;;
19525;SDS011;9907;42.676;26.348;2022-12-19T02:00:46;5.33;;;4.43;;
19525;SDS011;9907;42.676;26.348;2022-12-19T02:03:19;6.43;;;4.87;;
19525;SDS011;9907;42.676;26.348;2022-12-19T02:05:50;5.40;;;4.23;;
19525;SDS011;9907;42.676;26.348;2022-12-19T02:08:17;5.40;;;4.87;;
19525;SDS011;9907;42.676;26.348;2022-12-19T02:10:43;5.90;;;4.37;;
19525;SDS011;9907;42.676;26.348;2022-12-19T02:13:08;5.20;;;4.10;;
19525;SDS011;9907;42.676;26.348;2022-12-19T02:15:48;5.60;;;4.53;;
19525;SDS011;9907;42.676;26.348;2022-12-19T02:18:22;6.17;;;4.57;;
19525;SDS011;9907;42.676;26.348;2022-12-19T02:34:49;5.30;;;4.80;;
19525;SDS011;9907;42.676;26.348;2022-12-19T02:37:43;6.67;;;5.53;;
19525;SDS011;9907;42.676;26.348;2022-12-19T02:42:43;5.87;;;5.27;;
19525;SDS011;9907;42.676;26.348;2022-12-19T02:45:11;6.17;;;5.17;;
19525;SDS011;9907;42.676;26.348;2022-12-19T02:47:40;7.30;;;5.23;;
19525;SDS011;9907;42.676;26.348;2022-12-19T02:50:06;6.60;;;5.10;;
19525;SDS011;9907;42.676;26.348;2022-12-19T02:55:08;4.73;;;3.90;;
19525;SDS011;9907;42.676;26.348;2022-12-19T03:00:25;5.17;;;3.70;;
19525;SDS011;9907;42.676;26.348;2022-12-19T03:08:41;5.27;;;4.33;;
19525;SDS011;9907;42.676;26.348;2022-12-19T03:11:01;4.33;;;3.80;;
19525;SDS011;9907;42.676;26.348;2022-12-19T03:13:33;4.70;;;3.70;;
19525;SDS011;9907;42.676;26.348;2022-12-19T03:16:02;5.13;;;3.60;;
19525;SDS011;9907;42.676;26.348;2022-12-19T03:18:31;4.70;;;3.57;;
19525;SDS011;9907;42.676;26.348;2022-12-19T03:23:48;5.20;;;4.40;;
19525;SDS011;9907;42.676;26.348;2022-12-19T03:26:18;6.03;;;3.90;;
19525;SDS011;9907;42.676;26.348;2022-12-19T03:28:49;5.10;;;3.90;;
19525;SDS011;9907;42.676;26.348;2022-12-19T03:31:20;4.20;;;3.67;;
19525;SDS011;9907;42.676;26.348;2022-12-19T03:33:50;4.43;;;3.80;;
19525;SDS011;9907;42.676;26.348;2022-12-19T03:36:20;4.50;;;3.33;;
19525;SDS011;9907;42.676;26.348;2022-12-19T03:38:51;5.63;;;3.70;;
19525;SDS011;9907;42.676;26.348;2022-12-19T03:41:19;5.37;;;4.20;;
19525;SDS011;9907;42.676;26.348;2022-12-19T03:44:08;5.40;;;4.17;;
19525;SDS011;9907;42.676;26.348;2022-12-19T03:46:38;4.50;;;3.70;;
19525;SDS011;9907;42.676;26.348;2022-12-19T03:49:10;4.23;;;3.47;;
19525;SDS011;9907;42.676;26.348;2022-12-19T03:51:40;4.53;;;3.70;;
19525;SDS011;9907;42.676;26.348;2022-12-19T03:54:17;5.83;;;3.87;;
19525;SDS011;9907;42.676;26.348;2022-12-19T03:59:25;5.43;;;4.33;;
19525;SDS011;9907;42.676;26.348;2022-12-19T04:01:54;6.70;;;4.50;;
19525;SDS011;9907;42.676;26.348;2022-12-19T04:04:22;4.83;;;3.80;;
19525;SDS011;9907;42.676;26.348;2022-12-19T04:06:49;4.57;;;3.87;;
19525;SDS011;9907;42.676;26.348;2022-12-19T04:09:17;5.47;;;4.00;;
19525;SDS011;9907;42.676;26.348;2022-12-19T04:11:48;6.10;;;4.60;;
19525;SDS011;9907;42.676;26.348;2022-12-19T04:14:27;5.37;;;3.73;;
19525;SDS011;9907;42.676;26.348;2022-12-19T04:22:28;10.77;;;6.40;;
19525;SDS011;9907;42.676;26.348;2022-12-19T04:24:59;7.63;;;6.60;;
19525;SDS011;9907;42.676;26.348;2022-12-19T04:27:33;10.10;;;6.43;;
19525;SDS011;9907;42.676;26.348;2022-12-19T04:30:02;8.60;;;6.20;;
19525;SDS011;9907;42.676;26.348;2022-12-19T04:32:32;8.63;;;5.77;;
19525;SDS011;9907;42.676;26.348;2022-12-19T04:35:00;8.30;;;6.03;;
19525;SDS011;9907;42.676;26.348;2022-12-19T04:37:27;7.90;;;5.93;;
19525;SDS011;9907;42.676;26.348;2022-12-19T04:39:53;9.70;;;7.23;;
19525;SDS011;9907;42.676;26.348;2022-12-19T04:42:19;11.30;;;7.40;;
19525;SDS011;9907;42.676;26.348;2022-12-19T04:44:44;10.77;;;7.80;;
19525;SDS011;9907;42.676;26.348;2022-12-19T04:47:10;11.07;;;7.90;;
19525;SDS011;9907;42.676;26.348;2022-12-19T04:49:36;11.03;;;7.53;;
19525;SDS011;9907;42.676;26.348;2022-12-19T04:52:01;10.47;;;7.67;;
19525;SDS011;9907;42.676;26.348;2022-12-19T04:54:27;9.57;;;7.13;;
19525;SDS011;9907;42.676;26.348;2022-12-19T04:56:52;13.53;;;9.10;;
19525;SDS011;9907;42.676;26.348;2022-12-19T04:59:18;29.77;;;16.93;;
19525;SDS011;9907;42.676;26.348;2022-12-19T05:01:43;25.67;;;14.03;;
19525;SDS011;9907;42.676;26.348;2022-12-19T05:04:09;18.03;;;10.33;;
19525;SDS011;9907;42.676;26.348;2022-12-19T05:06:34;12.67;;;8.90;;
19525;SDS011;9907;42.676;26.348;2022-12-19T05:09:00;11.73;;;8.57;;
19525;SDS011;9907;42.676;26.348;2022-12-19T05:11:25;13.63;;;8.37;;
19525;SDS011;9907;42.676;26.348;2022-12-19T05:13:51;13.93;;;9.37;;
19525;SDS011;9907;42.676;26.348;2022-12-19T05:16:16;13.97;;;10.97;;
19525;SDS011;9907;42.676;26.348;2022-12-19T05:18:42;19.20;;;13.43;;
19525;SDS011;9907;42.676;26.348;2022-12-19T05:21:08;18.60;;;13.63;;
19525;SDS011;9907;42.676;26.348;2022-12-19T05:23:35;12.93;;;10.23;;
19525;SDS011;9907;42.676;26.348;2022-12-19T05:26:01;17.93;;;12.87;;
19525;SDS011;9907;42.676;26.348;2022-12-19T05:28:28;14.37;;;10.43;;
19525;SDS011;9907;42.676;26.348;2022-12-19T05:31:10;20.87;;;15.30;;
19525;SDS011;9907;42.676;26.348;2022-12-19T05:33:39;21.40;;;16.50;;
19525;SDS011;9907;42.676;26.348;2022-12-19T05:36:05;15.50;;;12.17;;
19525;SDS011;9907;42.676;26.348;2022-12-19T05:38:32;10.07;;;7.90;;
19525;SDS011;9907;42.676;26.348;2022-12-19T05:40:58;8.27;;;6.70;;
19525;SDS011;9907;42.676;26.348;2022-12-19T05:43:23;6.43;;;4.20;;
19525;SDS011;9907;42.676;26.348;2022-12-19T05:45:49;4.10;;;3.33;;
19525;SDS011;9907;42.676;26.348;2022-12-19T05:48:15;5.53;;;3.33;;
19525;SDS011;9907;42.676;26.348;2022-12-19T05:50:41;4.73;;;3.60;;
19525;SDS011;9907;42.676;26.348;2022-12-19T05:53:11;2.87;;;2.50;;
19525;SDS011;9907;42.676;26.348;2022-12-19T05:55:37;4.77;;;2.80;;
19525;SDS011;9907;42.676;26.348;2022-12-19T05:58:02;4.97;;;4.47;;
19525;SDS011;9907;42.676;26.348;2022-12-19T06:00:27;7.50;;;6.33;;
19525;SDS011;9907;42.676;26.348;2022-12-19T06:02:53;8.93;;;5.60;;
19525;SDS011;9907;42.676;26.348;2022-12-19T06:05:18;7.10;;;5.00;;
19525;SDS011;9907;42.676;26.348;2022-12-19T06:07:44;6.47;;;4.57;;
19525;SDS011;9907;42.676;26.348;2022-12-19T06:10:10;5.20;;;4.47;;
19525;SDS011;9907;42.676;26.348;2022-12-19T06:12:36;9.97;;;4.70;;
19525;SDS011;9907;42.676;26.348;2022-12-19T06:15:01;7.43;;;4.63;;
19525;SDS011;9907;42.676;26.348;2022-12-19T06:17:27;4.67;;;3.83;;
19525;SDS011;9907;42.676;26.348;2022-12-19T06:19:52;5.80;;;3.53;;
19525;SDS011;9907;42.676;26.348;2022-12-19T06:22:18;4.33;;;3.60;;
19525;SDS011;9907;42.676;26.348;2022-12-19T06:24:43;4.10;;;3.10;;
19525;SDS011;9907;42.676;26.348;2022-12-19T06:27:09;5.03;;;3.30;;
19525;SDS011;9907;42.676;26.348;2022-12-19T06:29:34;4.80;;;3.57;;
19525;SDS011;9907;42.676;26.348;2022-12-19T06:31:59;5.30;;;3.80;;
19525;SDS011;9907;42.676;26.348;2022-12-19T06:34:25;5.50;;;4.23;;
19525;SDS011;9907;42.676;26.348;2022-12-19T06:36:50;9.20;;;4.77;;
19525;SDS011;9907;42.676;26.348;2022-12-19T06:39:16;7.13;;;5.27;;
19525;SDS011;9907;42.676;26.348;2022-12-19T06:41:41;7.13;;;5.00;;
19525;SDS011;9907;42.676;26.348;2022-12-19T06:44:25;7.20;;;5.00;;
19525;SDS011;9907;42.676;26.348;2022-12-19T06:46:51;7.13;;;5.60;;
19525;SDS011;9907;42.676;26.348;2022-12-19T06:49:17;8.27;;;5.43;;
19525;SDS011;9907;42.676;26.348;2022-12-19T06:51:43;7.93;;;5.67;;
19525;SDS011;9907;42.676;26.348;2022-12-19T06:54:12;7.37;;;5.27;;
19525;SDS011;9907;42.676;26.348;2022-12-19T06:56:39;6.93;;;5.20;;
19525;SDS011;9907;42.676;26.348;2022-12-19T06:59:06;5.77;;;4.80;;
19525;SDS011;9907;42.676;26.348;2022-12-19T07:04:24;8.40;;;5.10;;
19525;SDS011;9907;42.676;26.348;2022-12-19T07:06:53;9.03;;;6.17;;
19525;SDS011;9907;42.676;26.348;2022-12-19T07:09:19;8.77;;;4.83;;
19525;SDS011;9907;42.676;26.348;2022-12-19T07:11:45;5.43;;;3.90;;
19525;SDS011;9907;42.676;26.348;2022-12-19T07:14:11;5.03;;;4.07;;
19525;SDS011;9907;42.676;26.348;2022-12-19T07:16:36;5.03;;;3.50;;
19525;SDS011;9907;42.676;26.348;2022-12-19T07:19:02;7.33;;;4.00;;
19525;SDS011;9907;42.676;26.348;2022-12-19T07:21:28;5.50;;;3.83;;
19525;SDS011;9907;42.676;26.348;2022-12-19T07:23:54;5.30;;;4.03;;
19525;SDS011;9907;42.676;26.348;2022-12-19T07:26:19;3.20;;;2.70;;
19525;SDS011;9907;42.676;26.348;2022-12-19T07:28:45;3.67;;;2.87;;
19525;SDS011;9907;42.676;26.348;2022-12-19T07:31:10;3.50;;;2.80;;
19525;SDS011;9907;42.676;26.348;2022-12-19T07:33:36;4.70;;;3.23;;
19525;SDS011;9907;42.676;26.348;2022-12-19T07:36:01;3.90;;;3.33;;
19525;SDS011;9907;42.676;26.348;2022-12-19T07:38:27;5.30;;;3.60;;
19525;SDS011;9907;42.676;26.348;2022-12-19T07:40:52;5.33;;;3.57;;
19525;SDS011;9907;42.676;26.348;2022-12-19T07:43:17;4.27;;;3.00;;
19525;SDS011;9907;42.676;26.348;2022-12-19T07:45:43;4.13;;;2.97;;
19525;SDS011;9907;42.676;26.348;2022-12-19T07:48:08;4.37;;;3.10;;
19525;SDS011;9907;42.676;26.348;2022-12-19T07:50:34;3.90;;;2.90;;
19525;SDS011;9907;42.676;26.348;2022-12-19T07:53:00;3.17;;;2.87;;
19525;SDS011;9907;42.676;26.348;2022-12-19T07:55:25;4.03;;;2.73;;
19525;SDS011;9907;42.676;26.348;2022-12-19T07:57:51;3.43;;;2.90;;
19525;SDS011;9907;42.676;26.348;2022-12-19T08:00:17;5.13;;;3.30;;
19525;SDS011;9907;42.676;26.348;2022-12-19T08:02:43;4.53;;;2.90;;
19525;SDS011;9907;42.676;26.348;2022-12-19T08:05:09;3.53;;;2.60;;
19525;SDS011;9907;42.676;26.348;2022-12-19T08:07:35;3.40;;;3.10;;
19525;SDS011;9907;42.676;26.348;2022-12-19T08:10:01;6.07;;;3.30;;
19525;SDS011;9907;42.676;26.348;2022-12-19T08:12:26;4.13;;;3.17;;
19525;SDS011;9907;42.676;26.348;2022-12-19T08:14:52;4.70;;;3.10;;
19525;SDS011;9907;42.676;26.348;2022-12-19T08:17:17;4.40;;;2.97;;
19525;SDS011;9907;42.676;26.348;2022-12-19T08:19:43;4.17;;;3.33;;
19525;SDS011;9907;42.676;26.348;2022-12-19T08:22:08;4.50;;;3.07;;
19525;SDS011;9907;42.676;26.348;2022-12-19T08:24:34;5.47;;;3.33;;
19525;SDS011;9907;42.676;26.348;2022-12-19T08:26:59;4.40;;;3.43;;
19525;SDS011;9907;42.676;26.348;2022-12-19T08:29:25;4.50;;;3.00;;
19525;SDS011;9907;42.676;26.348;2022-12-19T08:31:50;4.53;;;3.40;;
19525;SDS011;9907;42.676;26.348;2022-12-19T08:34:16;7.47;;;3.33;;
19525;SDS011;9907;42.676;26.348;2022-12-19T08:36:41;6.40;;;3.30;;
19525;SDS011;9907;42.676;26.348;2022-12-19T08:39:07;6.20;;;3.00;;
19525;SDS011;9907;42.676;26.348;2022-12-19T08:41:32;4.30;;;3.37;;
19525;SDS011;9907;42.676;26.348;2022-12-19T08:43:58;4.07;;;3.47;;
19525;SDS011;9907;42.676;26.348;2022-12-19T08:46:24;4.23;;;3.23;;
19525;SDS011;9907;42.676;26.348;2022-12-19T08:48:51;5.20;;;3.43;;
19525;SDS011;9907;42.676;26.348;2022-12-19T08:51:17;4.50;;;3.40;;
19525;SDS011;9907;42.676;26.348;2022-12-19T08:53:43;5.97;;;3.93;;
19525;SDS011;9907;42.676;26.348;2022-12-19T08:56:13;5.43;;;3.67;;
19525;SDS011;9907;42.676;26.348;2022-12-19T08:58:40;5.30;;;3.43;;
19525;SDS011;9907;42.676;26.348;2022-12-19T09:01:07;5.40;;;3.47;;
19525;SDS011;9907;42.676;26.348;2022-12-19T09:03:39;6.13;;;4.00;;
19525;SDS011;9907;42.676;26.348;2022-12-19T09:06:06;5.00;;;4.07;;
19525;SDS011;9907;42.676;26.348;2022-12-19T09:08:33;5.67;;;4.10;;
19525;SDS011;9907;42.676;26.348;2022-12-19T09:11:09;7.03;;;4.17;;
19525;SDS011;9907;42.676;26.348;2022-12-19T09:13:36;5.70;;;4.30;;
19525;SDS011;9907;42.676;26.348;2022-12-19T09:16:07;5.73;;;4.30;;
19525;SDS011;9907;42.676;26.348;2022-12-19T09:18:38;5.73;;;4.27;;
19525;SDS011;9907;42.676;26.348;2022-12-19T09:21:04;6.33;;;4.87;;
19525;SDS011;9907;42.676;26.348;2022-12-19T09:23:30;6.33;;;4.00;;
19525;SDS011;9907;42.676;26.348;2022-12-19T09:25:56;4.87;;;3.93;;
19525;SDS011;9907;42.676;26.348;2022-12-19T09:28:26;5.03;;;3.93;;
19525;SDS011;9907;42.676;26.348;2022-12-19T09:31:10;5.23;;;4.13;;
19525;SDS011;9907;42.676;26.348;2022-12-19T09:33:41;6.33;;;4.20;;
19525;SDS011;9907;42.676;26.348;2022-12-19T09:36:09;6.30;;;4.70;;
19525;SDS011;9907;42.676;26.348;2022-12-19T09:38:36;6.17;;;4.80;;
19525;SDS011;9907;42.676;26.348;2022-12-19T09:47:02;6.27;;;4.17;;
19525;SDS011;9907;42.676;26.348;2022-12-19T09:49:37;6.17;;;4.77;;
19525;SDS011;9907;42.676;26.348;2022-12-19T09:52:11;8.47;;;4.10;;
19525;SDS011;9907;42.676;26.348;2022-12-19T09:54:45;7.50;;;5.00;;
19525;SDS011;9907;42.676;26.348;2022-12-19T10:05:24;6.60;;;3.90;;
19525;SDS011;9907;42.676;26.348;2022-12-19T10:08:18;5.07;;;3.63;;
19525;SDS011;9907;42.676;26.348;2022-12-19T10:13:30;5.50;;;4.03;;
19525;SDS011;9907;42.676;26.348;2022-12-19T10:19:19;4.57;;;3.70;;
19525;SDS011;9907;42.676;26.348;2022-12-19T10:21:59;4.50;;;3.50;;
19525;SDS011;9907;42.676;26.348;2022-12-19T10:30:18;5.00;;;3.80;;
19525;SDS011;9907;42.676;26.348;2022-12-19T10:35:14;5.60;;;4.10;;
19525;SDS011;9907;42.676;26.348;2022-12-19T10:37:46;6.40;;;3.93;;
19525;SDS011;9907;42.676;26.348;2022-12-19T10:51:59;7.07;;;4.03;;
19525;SDS011;9907;42.676;26.348;2022-12-19T10:57:25;9.47;;;5.00;;
19525;SDS011;9907;42.676;26.348;2022-12-19T11:05:05;6.13;;;4.07;;
19525;SDS011;9907;42.676;26.348;2022-12-19T11:10:38;7.63;;;4.60;;
19525;SDS011;9907;42.676;26.348;2022-12-19T11:15:59;5.77;;;4.37;;
19525;SDS011;9907;42.676;26.348;2022-12-19T11:18:37;6.10;;;4.33;;
19525;SDS011;9907;42.676;26.348;2022-12-19T11:26:24;6.67;;;5.30;;
19525;SDS011;9907;42.676;26.348;2022-12-19T11:29:21;8.60;;;5.23;;
19525;SDS011;9907;42.676;26.348;2022-12-19T11:31:47;8.67;;;4.80;;
19525;SDS011;9907;42.676;26.348;2022-12-19T11:34:19;8.20;;;4.80;;
19525;SDS011;9907;42.676;26.348;2022-12-19T11:39:35;7.27;;;5.33;;
19525;SDS011;9907;42.676;26.348;2022-12-19T11:47:53;6.67;;;4.50;;
19525;SDS011;9907;42.676;26.348;2022-12-19T11:50:28;8.40;;;5.30;;
19525;SDS011;9907;42.676;26.348;2022-12-19T11:53:11;9.57;;;7.10;;
19525;SDS011;9907;42.676;26.348;2022-12-19T11:55:45;8.30;;;5.77;;
19525;SDS011;9907;42.676;26.348;2022-12-19T11:58:12;10.17;;;7.50;;
19525;SDS011;9907;42.676;26.348;2022-12-19T12:06:03;6.33;;;5.30;;
19525;SDS011;9907;42.676;26.348;2022-12-19T12:14:23;12.33;;;9.30;;
19525;SDS011;9907;42.676;26.348;2022-12-19T12:25:25;8.73;;;6.87;;
19525;SDS011;9907;42.676;26.348;2022-12-19T12:44:33;9.00;;;6.67;;
19525;SDS011;9907;42.676;26.348;2022-12-19T12:49:56;8.70;;;7.27;;
19525;SDS011;9907;42.676;26.348;2022-12-19T12:52:44;12.27;;;8.43;;
19525;SDS011;9907;42.676;26.348;2022-12-19T12:57:46;10.47;;;7.63;;
19525;SDS011;9907;42.676;26.348;2022-12-19T13:05:35;12.47;;;7.47;;
19525;SDS011;9907;42.676;26.348;2022-12-19T13:08:01;10.23;;;7.53;;
19525;SDS011;9907;42.676;26.348;2022-12-19T13:10:58;11.57;;;7.70;;
19525;SDS011;9907;42.676;26.348;2022-12-19T13:24:45;11.43;;;7.90;;
19525;SDS011;9907;42.676;26.348;2022-12-19T13:32:25;11.73;;;8.67;;
19525;SDS011;9907;42.676;26.348;2022-12-19T13:34:59;12.20;;;8.27;;
19525;SDS011;9907;42.676;26.348;2022-12-19T13:45:58;11.63;;;7.97;;
19525;SDS011;9907;42.676;26.348;2022-12-19T13:48:42;10.70;;;7.60;;
19525;SDS011;9907;42.676;26.348;2022-12-19T13:51:10;11.73;;;7.70;;
19525;SDS011;9907;42.676;26.348;2022-12-19T13:53:37;11.20;;;8.00;;
19525;SDS011;9907;42.676;26.348;2022-12-19T13:56:04;10.90;;;7.30;;
19525;SDS011;9907;42.676;26.348;2022-12-19T13:58:46;11.90;;;8.00;;
19525;SDS011;9907;42.676;26.348;2022-12-19T14:01:17;10.13;;;7.77;;
19525;SDS011;9907;42.676;26.348;2022-12-19T14:03:49;11.27;;;8.23;;
19525;SDS011;9907;42.676;26.348;2022-12-19T14:06:27;10.43;;;7.87;;
19525;SDS011;9907;42.676;26.348;2022-12-19T14:08:57;10.20;;;7.97;;
19525;SDS011;9907;42.676;26.348;2022-12-19T14:11:27;11.90;;;7.20;;
19525;SDS011;9907;42.676;26.348;2022-12-19T14:13:57;10.17;;;6.77;;
19525;SDS011;9907;42.676;26.348;2022-12-19T14:16:43;10.03;;;6.93;;
19525;SDS011;9907;42.676;26.348;2022-12-19T14:19:25;8.73;;;7.37;;
19525;SDS011;9907;42.676;26.348;2022-12-19T14:21:52;11.13;;;7.30;;
19525;SDS011;9907;42.676;26.348;2022-12-19T14:24:19;12.47;;;7.40;;
19525;SDS011;9907;42.676;26.348;2022-12-19T14:26:50;9.17;;;7.03;;
19525;SDS011;9907;42.676;26.348;2022-12-19T14:29:24;10.67;;;7.43;;
19525;SDS011;9907;42.676;26.348;2022-12-19T14:31:59;10.17;;;7.50;;
19525;SDS011;9907;42.676;26.348;2022-12-19T14:34:26;9.40;;;7.00;;
19525;SDS011;9907;42.676;26.348;2022-12-19T14:36:56;9.63;;;6.83;;
19525;SDS011;9907;42.676;26.348;2022-12-19T14:39:24;10.80;;;6.83;;
19525;SDS011;9907;42.676;26.348;2022-12-19T14:41:59;11.57;;;8.50;;
19525;SDS011;9907;42.676;26.348;2022-12-19T14:44:54;9.63;;;6.77;;
19525;SDS011;9907;42.676;26.348;2022-12-19T14:47:21;9.60;;;7.30;;
19525;SDS011;9907;42.676;26.348;2022-12-19T14:49:48;9.13;;;6.87;;
19525;SDS011;9907;42.676;26.348;2022-12-19T14:55:37;10.47;;;7.23;;
19525;SDS011;9907;42.676;26.348;2022-12-19T14:58:07;11.73;;;7.40;;
19525;SDS011;9907;42.676;26.348;2022-12-19T15:00:42;12.10;;;7.87;;
19525;SDS011;9907;42.676;26.348;2022-12-19T15:03:26;10.07;;;7.07;;
19525;SDS011;9907;42.676;26.348;2022-12-19T15:06:28;10.20;;;7.47;;
19525;SDS011;9907;42.676;26.348;2022-12-19T15:08:51;10.30;;;7.50;;
19525;SDS011;9907;42.676;26.348;2022-12-19T15:11:25;11.77;;;7.73;;
19525;SDS011;9907;42.676;26.348;2022-12-19T15:14:11;9.57;;;7.47;;
19525;SDS011;9907;42.676;26.348;2022-12-19T15:16:36;13.43;;;9.63;;
19525;SDS011;9907;42.676;26.348;2022-12-19T15:19:02;15.87;;;12.47;;
19525;SDS011;9907;42.676;26.348;2022-12-19T15:21:35;19.57;;;13.50;;
19525;SDS011;9907;42.676;26.348;2022-12-19T15:24:00;18.00;;;12.93;;
19525;SDS011;9907;42.676;26.348;2022-12-19T15:28:53;13.13;;;9.43;;
19525;SDS011;9907;42.676;26.348;2022-12-19T15:31:37;20.63;;;13.17;;
19525;SDS011;9907;42.676;26.348;2022-12-19T15:36:51;20.33;;;12.70;;
19525;SDS011;9907;42.676;26.348;2022-12-19T15:39:19;18.77;;;12.60;;
19525;SDS011;9907;42.676;26.348;2022-12-19T15:41:46;14.67;;;10.93;;
19525;SDS011;9907;42.676;26.348;2022-12-19T15:44:18;19.70;;;13.50;;
19525;SDS011;9907;42.676;26.348;2022-12-19T15:46:48;21.90;;;14.40;;
19525;SDS011;9907;42.676;26.348;2022-12-19T15:49:16;16.93;;;11.97;;
19525;SDS011;9907;42.676;26.348;2022-12-19T15:51:43;15.47;;;10.13;;
19525;SDS011;9907;42.676;26.348;2022-12-19T15:54:09;13.00;;;10.07;;
19525;SDS011;9907;42.676;26.348;2022-12-19T15:56:39;17.03;;;10.60;;
19525;SDS011;9907;42.676;26.348;2022-12-19T15:59:27;14.17;;;10.00;;
19525;SDS011;9907;42.676;26.348;2022-12-19T16:01:59;11.90;;;8.67;;
19525;SDS011;9907;42.676;26.348;2022-12-19T16:04:25;12.20;;;8.97;;
19525;SDS011;9907;42.676;26.348;2022-12-19T16:06:52;12.10;;;8.57;;
19525;SDS011;9907;42.676;26.348;2022-12-19T16:09:19;11.23;;;8.67;;
19525;SDS011;9907;42.676;26.348;2022-12-19T16:11:46;10.83;;;8.37;;
19525;SDS011;9907;42.676;26.348;2022-12-19T16:14:13;13.03;;;9.23;;
19525;SDS011;9907;42.676;26.348;2022-12-19T16:16:39;11.23;;;8.93;;
19525;SDS011;9907;42.676;26.348;2022-12-19T16:19:24;12.03;;;8.63;;
19525;SDS011;9907;42.676;26.348;2022-12-19T16:21:52;13.00;;;9.43;;
19525;SDS011;9907;42.676;26.348;2022-12-19T16:24:18;14.13;;;9.90;;
19525;SDS011;9907;42.676;26.348;2022-12-19T16:26:47;14.30;;;9.87;;
19525;SDS011;9907;42.676;26.348;2022-12-19T16:29:22;11.33;;;8.50;;
19525;SDS011;9907;42.676;26.348;2022-12-19T16:31:50;12.57;;;9.53;;
19525;SDS011;9907;42.676;26.348;2022-12-19T16:34:16;15.70;;;11.23;;
19525;SDS011;9907;42.676;26.348;2022-12-19T16:36:45;18.40;;;13.00;;
19525;SDS011;9907;42.676;26.348;2022-12-19T16:39:11;19.90;;;15.37;;
19525;SDS011;9907;42.676;26.348;2022-12-19T16:41:38;21.87;;;15.43;;
19525;SDS011;9907;42.676;26.348;2022-12-19T16:44:08;20.80;;;14.17;;
19525;SDS011;9907;42.676;26.348;2022-12-19T16:46:39;19.50;;;13.63;;
19525;SDS011;9907;42.676;26.348;2022-12-19T16:49:09;23.27;;;13.70;;
19525;SDS011;9907;42.676;26.348;2022-12-19T16:51:37;21.87;;;14.27;;
19525;SDS011;9907;42.676;26.348;2022-12-19T16:54:03;20.33;;;14.20;;
19525;SDS011;9907;42.676;26.348;2022-12-19T16:56:30;21.13;;;14.83;;
19525;SDS011;9907;42.676;26.348;2022-12-19T16:59:11;19.83;;;14.60;;
19525;SDS011;9907;42.676;26.348;2022-12-19T17:01:41;22.10;;;14.30;;
19525;SDS011;9907;42.676;26.348;2022-12-19T17:04:10;20.63;;;14.10;;
19525;SDS011;9907;42.676;26.348;2022-12-19T17:06:37;19.80;;;14.00;;
19525;SDS011;9907;42.676;26.348;2022-12-19T17:09:03;20.20;;;14.70;;
19525;SDS011;9907;42.676;26.348;2022-12-19T17:11:28;22.57;;;14.30;;
19525;SDS011;9907;42.676;26.348;2022-12-19T17:13:57;19.63;;;14.80;;
19525;SDS011;9907;42.676;26.348;2022-12-19T17:16:29;27.57;;;18.37;;
19525;SDS011;9907;42.676;26.348;2022-12-19T17:18:56;24.23;;;15.77;;
19525;SDS011;9907;42.676;26.348;2022-12-19T17:21:22;20.70;;;13.93;;
19525;SDS011;9907;42.676;26.348;2022-12-19T17:23:48;13.30;;;10.03;;
19525;SDS011;9907;42.676;26.348;2022-12-19T17:26:14;13.73;;;10.80;;
19525;SDS011;9907;42.676;26.348;2022-12-19T17:28:40;14.10;;;10.03;;
19525;SDS011;9907;42.676;26.348;2022-12-19T17:31:10;15.43;;;11.27;;
19525;SDS011;9907;42.676;26.348;2022-12-19T17:33:41;16.03;;;11.50;;
19525;SDS011;9907;42.676;26.348;2022-12-19T17:36:09;14.93;;;10.20;;
19525;SDS011;9907;42.676;26.348;2022-12-19T17:38:37;15.93;;;11.17;;
19525;SDS011;9907;42.676;26.348;2022-12-19T17:41:02;24.07;;;13.73;;
19525;SDS011;9907;42.676;26.348;2022-12-19T17:43:27;27.40;;;19.90;;
19525;SDS011;9907;42.676;26.348;2022-12-19T17:45:53;31.90;;;23.23;;
19525;SDS011;9907;42.676;26.348;2022-12-19T17:50:52;17.87;;;12.37;;
19525;SDS011;9907;42.676;26.348;2022-12-19T17:53:19;16.87;;;13.23;;
19525;SDS011;9907;42.676;26.348;2022-12-19T17:55:44;18.73;;;13.20;;
19525;SDS011;9907;42.676;26.348;2022-12-19T17:58:10;15.97;;;12.27;;
19525;SDS011;9907;42.676;26.348;2022-12-19T18:00:36;14.80;;;11.30;;
19525;SDS011;9907;42.676;26.348;2022-12-19T18:03:24;17.23;;;12.73;;